Time;durP1;ratioP1;P1;durP2;ratioP2;P2;SDS_P1;SDS_P2;PMS_P1;PMS_P2;Temp;Humidity;BMP_temperature;BMP_pressure;BME280_temperature;BME280_humidity;BME280_pressure;Samples;Min_cycle;Max_cycle;Signal;HPM_P1;HPM_P2
2023/04/05 00:00:09;;;;;;;;;;;;;;;0.86;100.00;102298.56;5073496;28;19916;-69
2023/04/05 00:02:35;;;;;;;;;;;;;;;0.89;100.00;102290.59;5073317;28;19916;-69
2023/04/05 00:05:02;;;;;;;;;;;;;;;0.88;100.00;102294.13;5073468;28;19916;-69
2023/04/05 00:07:28;;;;;;;;;;;;;;;0.91;100.00;102294.00;5073115;28;19936;-69
2023/04/05 00:09:53;;;;;;;;;;;;;;;0.93;100.00;102307.06;5072984;28;19917;-68
2023/04/05 00:12:20;;;;;;;;;;;;;;;0.90;100.00;102309.81;5073081;28;19913;-71
2023/04/05 00:14:45;;;;;;;;;;;;;;;0.88;100.00;102314.28;5073051;28;20253;-71
2023/04/05 00:17:13;;;;;;;;;;;;;;;0.91;100.00;102312.38;5072634;28;19913;-71
2023/04/05 00:19:44;;;;;;;;;;;;;;;0.99;100.00;102305.94;5034534;28;20339;-71
2023/04/05 00:22:09;;;;;;;;;;;;;;;1.01;100.00;102306.72;5050950;28;19919;-68
2023/04/05 00:24:37;;;;;;;;;;;;;;;0.93;100.00;102315.78;5050775;28;19913;-70
2023/04/05 00:27:03;;;;;;;;;;;;;;;0.89;100.00;102311.59;5051382;28;19939;-68
2023/04/05 00:29:29;;;;;;;;;;;;;;;0.92;100.00;102335.06;5051556;28;19913;-67
2023/04/05 00:31:55;;;;;;;;;;;;;;;0.92;100.00;102329.81;5054526;28;19982;-72
2023/04/05 00:34:20;;;;;;;;;;;;;;;0.96;100.00;102327.06;5062219;28;19913;-72
2023/04/05 00:36:46;;;;;;;;;;;;;;;0.99;100.00;102329.56;5035821;28;19913;-68
2023/04/05 00:39:11;;;;;;;;;;;;;;;1.03;100.00;102336.38;5055782;28;19913;-71
2023/04/05 00:41:36;;;;;;;;;;;;;;;1.00;100.00;102326.03;5060206;28;19917;-69
2023/04/05 00:44:02;;;;;;;;;;;;;;;0.97;100.00;102327.00;5059309;28;19912;-69
2023/04/05 00:46:28;;;;;;;;;;;;;;;0.96;100.00;102327.06;5072988;28;19947;-69
2023/04/05 00:48:53;;;;;;;;;;;;;;;0.99;100.00;102326.94;5073574;28;19959;-71
2023/04/05 00:51:19;;;;;;;;;;;;;;;0.98;100.00;102323.47;5055699;28;20263;-70
2023/04/05 00:53:46;;;;;;;;;;;;;;;0.96;100.00;102327.06;5073000;28;19935;-67
2023/04/05 00:56:12;;;;;;;;;;;;;;;0.93;100.00;102331.53;5073937;28;19959;-70
2023/04/05 00:58:40;;;;;;;;;;;;;;;0.98;100.00;102319.97;5072476;28;19924;-71
2023/04/05 01:01:33;;;;;;;;;;;;;;;0.97;100.00;102320.91;5072332;28;19913;-70
2023/04/05 01:04:01;;;;;;;;;;;;;;;0.84;100.00;102323.16;5068301;28;19923;-70
2023/04/05 01:06:39;;;;;;;;;;;;;;;0.82;100.00;102319.75;5073018;28;19934;-69
2023/04/05 01:09:13;;;;;;;;;;;;;;;0.75;100.00;102324.38;5074666;28;19916;-66
2023/04/05 01:11:39;;;;;;;;;;;;;;;0.79;100.00;102322.50;5075440;28;19938;-68
2023/04/05 01:14:05;;;;;;;;;;;;;;;0.77;100.00;102319.94;5075862;28;19913;-68
2023/04/05 01:16:30;;;;;;;;;;;;;;;0.80;100.00;102324.19;5076018;28;19913;-69
2023/04/05 01:18:55;;;;;;;;;;;;;;;0.84;100.00;102320.53;5074921;28;19912;-69
2023/04/05 01:21:33;;;;;;;;;;;;;;;0.87;100.00;102323.91;5072417;28;19916;-67
2023/04/05 01:24:08;;;;;;;;;;;;;;;0.88;100.00;102332.63;5072256;28;19913;-69
2023/04/05 01:26:53;;;;;;;;;;;;;;;0.86;100.00;102334.44;5072573;28;19916;-68
2023/04/05 01:29:31;;;;;;;;;;;;;;;0.83;100.00;102340.66;5072786;28;19928;-70
2023/04/05 01:32:01;;;;;;;;;;;;;;;0.83;100.00;102345.03;5072513;28;20380;-70
2023/04/05 01:34:27;;;;;;;;;;;;;;;0.83;100.00;102340.66;5072313;28;19913;-70
2023/04/05 01:36:59;;;;;;;;;;;;;;;0.88;100.00;102341.34;5072407;28;19912;-71
2023/04/05 01:39:25;;;;;;;;;;;;;;;0.90;100.00;102342.13;5072688;28;20047;-71
2023/04/05 01:41:50;;;;;;;;;;;;;;;0.89;100.00;102345.69;5073206;28;20352;-70
2023/04/05 01:44:16;;;;;;;;;;;;;;;0.89;100.00;102345.69;5074964;28;19996;-67
2023/04/05 01:46:41;;;;;;;;;;;;;;;0.87;100.00;102347.50;5073064;28;19913;-69
2023/04/05 01:49:07;;;;;;;;;;;;;;;0.78;100.00;102347.88;5075861;28;19917;-70
2023/04/05 01:51:32;;;;;;;;;;;;;;;0.75;100.00;102350.59;5075838;28;19912;-72
2023/04/05 01:53:57;;;;;;;;;;;;;;;0.75;100.00;102339.25;5058148;28;20010;-71
2023/04/05 01:56:23;;;;;;;;;;;;;;;0.75;100.00;102349.75;5076308;28;19921;-69
2023/04/05 01:58:50;;;;;;;;;;;;;;;0.71;100.00;102356.03;5075760;28;19959;-67
2023/04/05 02:01:16;;;;;;;;;;;;;;;0.71;100.00;102361.28;5075633;28;19963;-69
2023/04/05 02:03:41;;;;;;;;;;;;;;;0.71;100.00;102350.78;5075966;28;19916;-67
2023/04/05 02:06:07;;;;;;;;;;;;;;;0.76;100.00;102359.31;5076164;28;19916;-69
2023/04/05 02:08:32;;;;;;;;;;;;;;;0.70;100.00;102355.19;5057302;28;20411;-68
2023/04/05 02:10:57;;;;;;;;;;;;;;;0.71;100.00;102349.03;5075479;28;19967;-69
2023/04/05 02:13:24;;;;;;;;;;;;;;;0.68;100.00;102350.91;5075396;28;20020;-70
2023/04/05 02:15:50;;;;;;;;;;;;;;;0.67;100.00;102354.47;5057531;28;20252;-68
2023/04/05 02:18:21;;;;;;;;;;;;;;;0.73;100.00;102348.97;5075288;28;19919;-68
2023/04/05 02:20:50;;;;;;;;;;;;;;;0.74;100.00;102351.53;5075346;28;19920;-70
2023/04/05 02:23:15;;;;;;;;;;;;;;;0.69;100.00;102342.13;5075817;28;20375;-68
2023/04/05 02:25:41;;;;;;;;;;;;;;;0.66;100.00;102353.59;5076849;28;19913;-72
2023/04/05 02:28:06;;;;;;;;;;;;;;;0.64;100.00;102339.69;5058855;28;20490;-67
2023/04/05 02:30:32;;;;;;;;;;;;;;;0.67;100.00;102350.06;5075152;28;19916;-71
2023/04/05 02:32:57;;;;;;;;;;;;;;;0.66;100.00;102343.13;5057039;28;19969;-66
2023/04/05 02:35:22;;;;;;;;;;;;;;;0.61;100.00;102359.03;5058058;28;20340;-70
2023/04/05 02:37:48;;;;;;;;;;;;;;;0.63;100.00;102343.25;5074952;28;19912;-71
2023/04/05 02:40:14;;;;;;;;;;;;;;;0.62;100.00;102336.28;5074840;28;19916;-67
2023/04/05 02:42:39;;;;;;;;;;;;;;;0.57;100.00;102353.94;5075856;28;20310;-69
2023/04/05 02:45:07;;;;;;;;;;;;;;;0.56;100.00;102353.09;5057064;28;19966;-68
2023/04/05 02:47:32;;;;;;;;;;;;;;;0.55;100.00;102345.28;5074605;28;19936;-69
2023/04/05 02:49:58;;;;;;;;;;;;;;;0.55;100.00;102350.53;5074628;28;20368;-70
2023/04/05 02:52:23;;;;;;;;;;;;;;;0.59;100.00;102346.91;5074495;28;19912;-70
2023/04/05 02:54:48;;;;;;;;;;;;;;;0.61;100.00;102348.53;5074872;28;19912;-70
2023/04/05 02:57:15;;;;;;;;;;;;;;;0.65;100.00;102341.41;5076159;28;20384;-70
2023/04/05 02:59:41;;;;;;;;;;;;;;;0.67;100.00;102344.81;5076701;28;19945;-69
2023/04/05 03:02:07;;;;;;;;;;;;;;;0.71;100.00;102335.91;5075809;28;19920;-72
2023/04/05 03:04:35;;;;;;;;;;;;;;;0.72;100.00;102342.00;5075089;28;20011;-69
2023/04/05 03:07:01;;;;;;;;;;;;;;;0.73;100.00;102339.31;5056356;28;19912;-69
2023/04/05 03:09:32;;;;;;;;;;;;;;;0.69;100.00;102327.25;5074481;28;20386;-69
2023/04/05 03:11:57;;;;;;;;;;;;;;;0.64;100.00;102334.47;5074688;28;19978;-69
2023/04/05 03:14:23;;;;;;;;;;;;;;;0.64;100.00;102339.69;5076527;28;20352;-68
2023/04/05 03:16:49;;;;;;;;;;;;;;;0.67;100.00;102341.34;5076655;28;19913;-70
2023/04/05 03:19:15;;;;;;;;;;;;;;;0.67;100.00;102351.84;5077381;28;19934;-69
2023/04/05 03:21:41;;;;;;;;;;;;;;;0.75;100.00;102352.38;5076826;28;19916;-69
2023/04/05 03:24:06;;;;;;;;;;;;;;;0.74;100.00;102354.16;5075117;28;19919;-69
2023/04/05 03:26:32;;;;;;;;;;;;;;;0.73;100.00;102356.84;5074738;28;20377;-68
2023/04/05 03:28:57;;;;;;;;;;;;;;;0.74;100.00;102355.91;5062450;28;19916;-70
2023/04/05 03:31:22;;;;;;;;;;;;;;;0.74;100.00;102353.28;5075047;28;20403;-68
2023/04/05 03:33:48;;;;;;;;;;;;;;;0.78;100.00;102347.00;5056050;28;19919;-70
2023/04/05 03:36:15;;;;;;;;;;;;;;;0.75;100.00;102345.38;5073586;28;19919;-67
2023/04/05 03:38:42;;;;;;;;;;;;;;;0.72;100.00;102353.34;5073920;28;19935;-70
2023/04/05 03:41:08;;;;;;;;;;;;;;;0.71;100.00;102356.03;5073904;28;20380;-69
2023/04/05 03:43:33;;;;;;;;;;;;;;;0.67;100.00;102360.56;5056048;28;19962;-69
2023/04/05 03:45:58;;;;;;;;;;;;;;;0.72;100.00;102358.59;5073571;28;19986;-68
2023/04/05 03:48:23;;;;;;;;;;;;;;;0.70;100.00;102364.81;5073616;28;20003;-69
2023/04/05 03:50:49;;;;;;;;;;;;;;;0.70;100.00;102365.66;5067316;28;19935;-69
2023/04/05 03:53:17;;;;;;;;;;;;;;;0.65;100.00;102364.16;5054327;28;20032;-69
2023/04/05 03:55:48;;;;;;;;;;;;;;;0.67;100.00;102371.03;5054286;28;20020;-66
2023/04/05 03:58:13;;;;;;;;;;;;;;;0.72;100.00;102368.22;5053570;28;20015;-72
2023/04/05 04:00:39;;;;;;;;;;;;;;;0.76;100.00;102372.44;5053400;28;20354;-72
2023/04/05 04:03:05;;;;;;;;;;;;;;;0.80;100.00;102380.13;5052994;28;19966;-69
2023/04/05 04:05:31;;;;;;;;;;;;;;;0.82;100.00;102385.31;5053638;28;19917;-75
2023/04/05 04:08:20;;;;;;;;;;;;;;;0.84;100.00;102383.47;5037770;28;20452;-69
2023/04/05 04:10:46;;;;;;;;;;;;;;;0.88;100.00;102375.44;5050849;28;20007;-67
2023/04/05 04:13:11;;;;;;;;;;;;;;;0.85;100.00;102379.94;5053171;28;19968;-68
2023/04/05 04:15:36;;;;;;;;;;;;;;;0.80;100.00;102392.38;5053554;28;20499;-68
2023/04/05 04:18:02;;;;;;;;;;;;;;;0.83;100.00;102385.25;5053174;28;20427;-68
2023/04/05 04:20:27;;;;;;;;;;;;;;;0.86;100.00;102386.88;5051744;28;19923;-70
2023/04/05 04:22:52;;;;;;;;;;;;;;;0.92;100.00;102387.53;5052942;28;19913;-68
2023/04/05 04:25:19;;;;;;;;;;;;;;;0.95;100.00;102396.19;5052838;28;19912;-73
2023/04/05 04:27:45;;;;;;;;;;;;;;;1.00;100.00;102404.72;5054018;28;20300;-69
2023/04/05 04:30:14;;;;;;;;;;;;;;;1.08;100.00;102415.75;5052579;28;20352;-70
2023/04/05 04:32:55;;;;;;;;;;;;;;;1.09;100.00;102422.72;5056218;28;19967;-65
2023/04/05 04:35:23;;;;;;;;;;;;;;;1.11;100.00;102418.25;5053706;28;19919;-66
2023/04/05 04:38:04;;;;;;;;;;;;;;;1.12;100.00;102420.81;5054431;28;20348;-69
2023/04/05 04:40:37;;;;;;;;;;;;;;;1.06;100.00;102422.84;5052531;28;19916;-68
2023/04/05 04:43:03;;;;;;;;;;;;;;;1.06;100.00;102420.22;5055423;28;19971;-66
2023/04/05 04:45:33;;;;;;;;;;;;;;;1.12;100.00;102419.97;5054264;28;20423;-66
2023/04/05 04:48:00;;;;;;;;;;;;;;;1.17;100.00;102408.38;5053863;28;19916;-67
2023/04/05 04:50:25;;;;;;;;;;;;;;;1.17;100.00;102408.38;5053492;28;19960;-65
2023/04/05 04:52:51;;;;;;;;;;;;;;;1.21;100.00;102419.63;5051231;28;20285;-64
2023/04/05 04:55:17;;;;;;;;;;;;;;;1.18;100.00;102427.63;5052472;28;19967;-67
2023/04/05 04:57:42;;;;;;;;;;;;;;;1.18;100.00;102425.84;5053678;28;20016;-65
2023/04/05 05:00:11;;;;;;;;;;;;;;;1.21;100.00;102430.13;5052939;28;20015;-66
2023/04/05 05:02:37;;;;;;;;;;;;;;;1.16;100.00;102437.31;5051098;28;19917;-66
2023/04/05 05:05:03;;;;;;;;;;;;;;;1.12;100.00;102440.94;5052495;28;19917;-65
2023/04/05 05:07:28;;;;;;;;;;;;;;;1.12;100.00;102452.31;5051178;28;20131;-66
2023/04/05 05:09:54;;;;;;;;;;;;;;;1.17;100.00;102450.38;5052357;28;19916;-64
2023/04/05 05:12:20;;;;;;;;;;;;;;;1.26;100.00;102449.16;5051066;28;19913;-65
2023/04/05 05:14:45;;;;;;;;;;;;;;;1.37;100.00;102457.44;5052065;28;19920;-65
2023/04/05 05:17:10;;;;;;;;;;;;;;;1.37;100.00;102457.44;5052344;28;20273;-65
2023/04/05 05:19:36;;;;;;;;;;;;;;;1.28;100.00;102465.69;5060125;28;19920;-67
2023/04/05 05:22:01;;;;;;;;;;;;;;;1.28;100.00;102470.94;5055384;28;19923;-66
2023/04/05 05:24:26;;;;;;;;;;;;;;;1.24;100.00;102474.59;5075837;28;19912;-66
2023/04/05 05:26:52;;;;;;;;;;;;;;;1.25;100.00;102476.31;5076360;28;19958;-66
2023/04/05 05:29:17;;;;;;;;;;;;;;;1.36;100.00;102481.97;5076046;28;19920;-70
2023/04/05 05:31:42;;;;;;;;;;;;;;;1.47;100.00;102478.94;5058115;28;19920;-66
2023/04/05 05:34:07;;;;;;;;;;;;;;;1.45;100.00;102492.13;5075997;28;19916;-70
2023/04/05 05:36:33;;;;;;;;;;;;;;;1.49;100.00;102492.84;5075513;28;20368;-67
2023/04/05 05:38:59;;;;;;;;;;;;;;;1.45;100.00;102492.13;5075451;28;19912;-70
2023/04/05 05:41:24;;;;;;;;;;;;;;;1.47;100.00;102495.53;5075203;28;20382;-65
2023/04/05 05:43:49;;;;;;;;;;;;;;;1.39;100.00;102481.84;5074318;28;19920;-67
2023/04/05 05:46:15;;;;;;;;;;;;;;;1.41;100.00;102495.75;5075577;28;20003;-68
2023/04/05 05:48:40;;;;;;;;;;;;;;;1.45;100.00;102497.38;5075574;28;20018;-65
2023/04/05 05:51:08;;;;;;;;;;;;;;;1.50;100.00;102499.81;5075451;28;20279;-66
2023/04/05 05:53:37;;;;;;;;;;;;;;;1.61;100.00;102499.38;5075562;28;19916;-65
2023/04/05 05:56:03;;;;;;;;;;;;;;;1.71;100.00;102487.56;5075654;28;19919;-66
2023/04/05 05:58:28;;;;;;;;;;;;;;;1.69;100.00;102497.28;5075541;28;19912;-66
2023/04/05 06:00:57;;;;;;;;;;;;;;;1.69;100.00;102492.88;5057328;28;20012;-67
2023/04/05 06:03:24;;;;;;;;;;;;;;;1.80;100.00;102489.81;5075426;28;19917;-68
2023/04/05 06:06:01;;;;;;;;;;;;;;;1.82;100.00;102482.72;5075262;28;19916;-66
2023/04/05 06:08:27;;;;;;;;;;;;;;;1.88;100.00;102490.34;5075636;28;19951;-65
2023/04/05 06:10:52;;;;;;;;;;;;;;;1.92;100.00;102485.81;5075456;28;20002;-66
2023/04/05 06:13:18;;;;;;;;;;;;;;;2.03;100.00;102489.72;5075620;28;19969;-66
2023/04/05 06:15:44;;;;;;;;;;;;;;;2.03;100.00;102499.38;5075969;28;20403;-67
2023/04/05 06:18:09;;;;;;;;;;;;;;;2.03;100.00;102497.59;5075752;28;19974;-67
2023/04/05 06:20:39;;;;;;;;;;;;;;;1.96;100.00;102501.38;5075734;28;20018;-66
2023/04/05 06:23:04;;;;;;;;;;;;;;;1.95;100.00;102501.44;5076000;28;20315;-68
2023/04/05 06:25:30;;;;;;;;;;;;;;;1.99;100.00;102497.75;5075623;28;19970;-67
2023/04/05 06:27:55;;;;;;;;;;;;;;;2.00;100.00;102505.59;5056903;28;19913;-66
2023/04/05 06:30:20;;;;;;;;;;;;;;;2.01;100.00;102504.66;5075148;28;20044;-67
2023/04/05 06:32:47;;;;;;;;;;;;;;;1.98;100.00;102512.69;5056533;28;19914;-66
2023/04/05 06:35:12;;;;;;;;;;;;;;;2.03;100.00;102504.63;5073964;28;19913;-68
2023/04/05 06:37:38;;;;;;;;;;;;;;;2.09;100.00;102509.63;5074742;28;19912;-68
2023/04/05 06:40:21;;;;;;;;;;;;;;;2.15;100.00;102502.31;5074824;28;20397;-71
2023/04/05 06:42:46;;;;;;;;;;;;;;;2.12;100.00;102504.22;5026342;28;19916;-66
2023/04/05 06:45:12;;;;;;;;;;;;;;;2.17;100.00;102508.34;5074744;28;19919;-69
2023/04/05 06:47:38;;;;;;;;;;;;;;;2.28;100.00;102502.63;5067689;28;19917;-67
2023/04/05 06:50:04;;;;;;;;;;;;;;;2.39;100.00;102503.03;5058124;28;19916;-68
2023/04/05 06:52:29;;;;;;;;;;;;;;;2.46;100.00;102501.84;5068420;28;19946;-66
2023/04/05 06:54:55;;;;;;;;;;;;;;;2.57;100.00;102503.97;5066849;28;19913;-66
2023/04/05 06:57:21;;;;;;;;;;;;;;;2.68;100.00;102509.63;5076120;28;19912;-66
2023/04/05 06:59:46;;;;;;;;;;;;;;;2.82;100.00;102510.75;5095043;28;19916;-65
2023/04/05 07:02:11;;;;;;;;;;;;;;;2.87;100.00;102512.25;5095154;28;19916;-67
2023/04/05 07:04:38;;;;;;;;;;;;;;;2.95;100.00;102512.78;5076287;28;19927;-68
2023/04/05 07:07:05;;;;;;;;;;;;;;;3.07;100.00;102511.34;5076725;28;19919;-66
2023/04/05 07:09:33;;;;;;;;;;;;;;;3.13;99.61;102516.31;5076559;28;20388;-68
2023/04/05 07:12:00;;;;;;;;;;;;;;;3.04;99.81;102512.34;5094767;28;19916;-67
2023/04/05 07:14:25;;;;;;;;;;;;;;;3.09;99.59;102518.25;5094568;28;19912;-67
2023/04/05 07:16:53;;;;;;;;;;;;;;;3.16;99.41;102515.31;5076299;28;19912;-65
2023/04/05 07:19:19;;;;;;;;;;;;;;;3.16;99.54;102521.44;5092051;28;19912;-64
2023/04/05 07:21:44;;;;;;;;;;;;;;;3.26;99.19;102517.47;5052672;28;19924;-69
2023/04/05 07:24:09;;;;;;;;;;;;;;;3.33;98.58;102528.56;5053839;28;19913;-66
2023/04/05 07:26:36;;;;;;;;;;;;;;;3.39;98.34;102518.56;5063747;28;19919;-65
2023/04/05 07:29:01;;;;;;;;;;;;;;;3.43;98.05;102522.75;5082272;28;19958;-67
2023/04/05 07:31:27;;;;;;;;;;;;;;;3.53;97.75;102515.28;5055136;28;20022;-68
2023/04/05 07:33:52;;;;;;;;;;;;;;;3.62;96.64;102516.59;5054123;28;20277;-66
2023/04/05 07:36:18;;;;;;;;;;;;;;;3.79;96.88;102521.06;5074952;28;20274;-66
2023/04/05 07:38:43;;;;;;;;;;;;;;;3.89;96.22;102517.88;5073741;28;19952;-66
2023/04/05 07:41:09;;;;;;;;;;;;;;;4.17;95.89;102519.13;5073526;28;19923;-68
2023/04/05 07:43:34;;;;;;;;;;;;;;;4.36;94.58;102522.53;5073091;28;20007;-70
2023/04/05 07:46:01;;;;;;;;;;;;;;;4.46;92.84;102523.75;5055141;28;19935;-76
2023/04/05 07:48:26;;;;;;;;;;;;;;;4.29;92.94;102529.88;5072916;28;19919;-66
2023/04/05 07:50:54;;;;;;;;;;;;;;;4.16;94.02;102526.19;5072635;28;20394;-66
2023/04/05 07:53:20;;;;;;;;;;;;;;;4.10;94.86;102515.09;5072518;28;20279;-65
2023/04/05 07:55:46;;;;;;;;;;;;;;;3.89;95.29;102528.44;5072848;28;19923;-63
2023/04/05 07:58:11;;;;;;;;;;;;;;;3.82;96.30;102527.03;5072924;28;20311;-66
2023/04/05 08:00:37;;;;;;;;;;;;;;;4.09;95.99;102529.22;5072935;28;19913;-65
2023/04/05 08:03:03;;;;;;;;;;;;;;;4.18;94.50;102526.97;5072724;28;19928;-67
2023/04/05 08:05:30;;;;;;;;;;;;;;;4.38;93.66;102515.41;5073669;28;19916;-64
2023/04/05 08:07:56;;;;;;;;;;;;;;;4.40;93.16;102525.88;5074111;28;19913;-71
2023/04/05 08:10:22;;;;;;;;;;;;;;;4.37;93.20;102515.47;5055944;28;20053;-67
2023/04/05 08:12:48;;;;;;;;;;;;;;;4.59;93.45;102519.53;5072877;28;20384;-66
2023/04/05 08:15:13;;;;;;;;;;;;;;;4.56;92.76;102524.13;5073707;28;19912;-67
2023/04/05 08:17:38;;;;;;;;;;;;;;;4.55;92.63;102530.31;5057575;28;19912;-68
2023/04/05 08:20:04;;;;;;;;;;;;;;;4.49;92.92;102523.59;5077500;28;19913;-66
2023/04/05 08:22:30;;;;;;;;;;;;;;;4.44;93.03;102522.97;5058653;28;19912;-64
2023/04/05 08:24:55;;;;;;;;;;;;;;;4.46;93.15;102539.59;5077924;28;19912;-68
2023/04/05 08:27:21;;;;;;;;;;;;;;;4.51;92.69;102528.78;5080674;28;19920;-68
2023/04/05 08:29:46;;;;;;;;;;;;;;;4.55;92.73;102528.53;5078810;28;19913;-69
2023/04/05 08:32:11;;;;;;;;;;;;;;;4.60;92.97;102526.50;5079335;28;20284;-69
2023/04/05 08:34:37;;;;;;;;;;;;;;;4.60;92.44;102525.66;5041515;28;19912;-70
2023/04/05 08:37:02;;;;;;;;;;;;;;;4.64;92.17;102533.34;5072553;28;19913;-65
2023/04/05 08:39:27;;;;;;;;;;;;;;;4.77;91.97;102527.41;5072754;28;19917;-65
2023/04/05 08:42:03;;;;;;;;;;;;;;;4.88;91.47;102530.31;5054733;28;19912;-68
2023/04/05 08:44:30;;;;;;;;;;;;;;;5.00;91.23;102534.94;5070790;28;19917;-65
2023/04/05 08:46:57;;;;;;;;;;;;;;;5.15;90.95;102549.94;5072183;28;20387;-68
2023/04/05 08:49:22;;;;;;;;;;;;;;;5.12;89.99;102554.53;5054841;28;20007;-67
2023/04/05 08:51:47;;;;;;;;;;;;;;;4.98;91.04;102531.53;5072005;28;20126;-65
2023/04/05 08:54:13;;;;;;;;;;;;;;;5.06;90.46;102537.25;5072200;28;19965;-68
2023/04/05 08:56:41;;;;;;;;;;;;;;;4.82;91.03;102546.50;5071132;28;19956;-67
2023/04/05 08:59:08;;;;;;;;;;;;;;;4.89;91.39;102558.41;5072291;28;19913;-66
2023/04/05 09:01:38;;;;;;;;;;;;;;;5.03;91.52;102550.63;5073082;28;19921;-66
2023/04/05 09:04:05;;;;;;;;;;;;;;;5.04;90.19;102560.25;5073779;28;19931;-66
2023/04/05 09:06:31;;;;;;;;;;;;;;;4.92;90.46;102560.94;5074379;28;19917;-63
2023/04/05 09:08:57;;;;;;;;;;;;;;;4.99;90.98;102567.56;5073656;28;19912;-67
2023/04/05 09:11:22;;;;;;;;;;;;;;;4.90;91.54;102570.69;5076242;28;19935;-66
2023/04/05 09:13:48;;;;;;;;;;;;;;;4.93;91.46;102565.25;5078039;28;19925;-68
2023/04/05 09:16:14;;;;;;;;;;;;;;;5.03;91.01;102569.09;5044166;28;19913;-66
2023/04/05 09:18:40;;;;;;;;;;;;;;;5.09;90.19;102560.84;5040770;28;19919;-67
2023/04/05 09:21:05;;;;;;;;;;;;;;;5.28;89.94;102571.28;5072546;28;19912;-65
2023/04/05 09:23:32;;;;;;;;;;;;;;;5.28;89.54;102569.47;5073163;28;20349;-66
2023/04/05 09:25:58;;;;;;;;;;;;;;;5.35;89.92;102571.78;5073871;28;19917;-65
2023/04/05 09:28:38;;;;;;;;;;;;;;;5.22;89.33;102572.47;5071981;28;19912;-68
2023/04/05 09:31:03;;;;;;;;;;;;;;;5.17;89.51;102569.19;5054086;28;19935;-71
2023/04/05 09:33:29;;;;;;;;;;;;;;;5.23;89.71;102563.59;5071811;28;20423;-66
2023/04/05 09:35:54;;;;;;;;;;;;;;;5.41;89.57;102576.72;5071871;28;19938;-69
2023/04/05 09:38:40;;;;;;;;;;;;;;;5.48;88.54;102572.78;5071817;28;20383;-68
2023/04/05 09:41:07;;;;;;;;;;;;;;;5.42;89.31;102574.00;5071359;28;19913;-67
2023/04/05 09:43:39;;;;;;;;;;;;;;;5.51;88.60;102572.66;5071919;28;20029;-69
2023/04/05 09:46:05;;;;;;;;;;;;;;;5.67;87.71;102569.97;5071689;28;19919;-68
2023/04/05 09:48:46;;;;;;;;;;;;;;;5.69;88.17;102574.25;5071081;28;19916;-66
2023/04/05 09:51:12;;;;;;;;;;;;;;;5.64;87.77;102578.94;5071471;28;20020;-68
2023/04/05 09:53:55;;;;;;;;;;;;;;;5.56;88.37;102581.16;5071228;28;19916;-66
2023/04/05 09:56:20;;;;;;;;;;;;;;;5.65;88.34;102580.63;5071346;28;19916;-68
2023/04/05 09:58:49;;;;;;;;;;;;;;;5.74;87.98;102584.53;5071777;28;19919;-70
2023/04/05 10:01:14;;;;;;;;;;;;;;;5.80;87.75;102589.50;5071845;28;19916;-69
2023/04/05 10:03:47;;;;;;;;;;;;;;;5.96;87.64;102586.84;5070855;28;20017;-69
2023/04/05 10:06:14;;;;;;;;;;;;;;;5.93;87.04;102589.69;5072028;28;19923;-66
2023/04/05 10:08:39;;;;;;;;;;;;;;;5.95;87.27;102587.81;5072739;28;19913;-68
2023/04/05 10:11:05;;;;;;;;;;;;;;;5.99;87.30;102600.75;5075561;28;19920;-67
2023/04/05 10:13:30;;;;;;;;;;;;;;;5.98;86.23;102609.63;5075007;28;19912;-67
2023/04/05 10:15:58;;;;;;;;;;;;;;;5.86;87.16;102600.59;5075162;28;19937;-69
2023/04/05 10:18:28;;;;;;;;;;;;;;;5.90;87.53;102602.16;5074037;28;20293;-66
2023/04/05 10:20:56;;;;;;;;;;;;;;;5.90;87.20;102614.50;5075610;28;20385;-65
2023/04/05 10:23:27;;;;;;;;;;;;;;;5.97;87.15;102599.16;5077220;28;19913;-68
2023/04/05 10:25:52;;;;;;;;;;;;;;;6.15;86.49;102595.44;5075631;28;19919;-66
2023/04/05 10:28:34;;;;;;;;;;;;;;;6.26;86.40;102618.63;5075445;28;19916;-66
2023/04/05 10:31:03;;;;;;;;;;;;;;;6.28;86.34;102611.44;5074907;28;19920;-66
2023/04/05 10:33:45;;;;;;;;;;;;;;;6.42;86.05;102604.41;5074823;28;19921;-69
2023/04/05 10:36:17;;;;;;;;;;;;;;;6.46;85.18;102605.94;5075661;28;20316;-68
2023/04/05 10:38:48;;;;;;;;;;;;;;;6.18;85.66;102616.44;5074872;28;20036;-67
2023/04/05 10:41:13;;;;;;;;;;;;;;;5.99;85.85;102611.34;5075041;28;19920;-69
2023/04/05 10:43:39;;;;;;;;;;;;;;;6.00;87.07;102615.69;5074806;28;20231;-68
2023/04/05 10:46:05;;;;;;;;;;;;;;;6.04;87.29;102605.78;5074348;28;20007;-67
2023/04/05 10:48:47;;;;;;;;;;;;;;;6.09;87.10;102615.19;5056526;28;20011;-66
2023/04/05 10:51:14;;;;;;;;;;;;;;;6.28;86.39;102614.94;5074412;28;19912;-67
2023/04/05 10:53:39;;;;;;;;;;;;;;;6.41;85.57;102615.94;5074257;28;20018;-69
2023/04/05 10:56:05;;;;;;;;;;;;;;;6.58;85.45;102617.56;5074927;28;20024;-68
2023/04/05 10:58:31;;;;;;;;;;;;;;;6.64;85.23;102621.66;5079793;28;19912;-68
2023/04/05 11:00:57;;;;;;;;;;;;;;;6.70;85.02;102626.59;5074365;28;19948;-65
2023/04/05 11:03:45;;;;;;;;;;;;;;;6.72;84.35;102630.00;5074394;28;19916;-69
2023/04/05 11:06:30;;;;;;;;;;;;;;;6.83;84.95;102622.25;5074128;28;20320;-67
2023/04/05 11:09:00;;;;;;;;;;;;;;;6.65;84.00;102623.34;5056370;28;19975;-68
2023/04/05 11:11:26;;;;;;;;;;;;;;;6.74;84.38;102625.47;5074003;28;19912;-70
2023/04/05 11:13:55;;;;;;;;;;;;;;;6.51;84.51;102632.13;5073878;28;19912;-65
2023/04/05 11:16:21;;;;;;;;;;;;;;;6.29;86.07;102640.47;5074064;28;20375;-66
2023/04/05 11:18:47;;;;;;;;;;;;;;;6.33;85.65;102634.03;5073660;28;19912;-67
2023/04/05 11:21:28;;;;;;;;;;;;;;;6.40;86.06;102643.34;5073758;28;20421;-66
2023/04/05 11:23:59;;;;;;;;;;;;;;;6.36;85.32;102633.91;5074383;28;19912;-67
2023/04/05 11:26:30;;;;;;;;;;;;;;;6.37;85.50;102640.88;5074026;28;19938;-67
2023/04/05 11:28:57;;;;;;;;;;;;;;;6.41;84.94;102630.97;5074032;28;19913;-67
2023/04/05 11:31:25;;;;;;;;;;;;;;;6.17;86.01;102646.47;5056562;28;19912;-65
2023/04/05 11:33:57;;;;;;;;;;;;;;;6.21;86.99;102642.69;5073762;28;20384;-64
2023/04/05 11:36:36;;;;;;;;;;;;;;;6.50;86.27;102644.50;5073894;28;19913;-69
2023/04/05 11:39:17;;;;;;;;;;;;;;;6.57;84.86;102649.44;5074398;28;19917;-68
2023/04/05 11:41:43;;;;;;;;;;;;;;;6.60;85.25;102651.91;5074683;28;19935;-70
2023/04/05 11:44:12;;;;;;;;;;;;;;;6.73;85.04;102650.25;5075400;28;20013;-67
2023/04/05 11:46:38;;;;;;;;;;;;;;;6.83;84.21;102656.69;5074104;28;19959;-70
2023/04/05 11:49:03;;;;;;;;;;;;;;;6.70;84.58;102658.38;5039475;28;19944;-68
2023/04/05 11:51:29;;;;;;;;;;;;;;;6.63;85.28;102655.22;5073765;28;20435;-68
2023/04/05 11:53:54;;;;;;;;;;;;;;;6.50;85.29;102659.53;5073349;28;19919;-67
2023/04/05 11:56:20;;;;;;;;;;;;;;;6.32;85.74;102663.25;5072918;28;19912;-67
2023/04/05 11:58:45;;;;;;;;;;;;;;;6.27;86.52;102660.88;5073210;28;19913;-67
2023/04/05 12:01:10;;;;;;;;;;;;;;;6.27;87.34;102663.50;5073863;28;19938;-69
2023/04/05 12:03:36;;;;;;;;;;;;;;;6.17;87.13;102673.78;5073602;28;19916;-70
2023/04/05 12:06:02;;;;;;;;;;;;;;;6.02;88.20;102665.84;5055907;28;20329;-65
2023/04/05 12:08:41;;;;;;;;;;;;;;;6.04;88.79;102671.91;5078845;28;19969;-65
2023/04/05 12:11:08;;;;;;;;;;;;;;;5.96;88.70;102674.13;5075222;28;19958;-67
2023/04/05 12:13:36;;;;;;;;;;;;;;;5.90;89.29;102670.91;5072997;28;19912;-66
2023/04/05 12:16:02;;;;;;;;;;;;;;;6.02;89.04;102677.28;5072905;28;20007;-66
2023/04/05 12:18:30;;;;;;;;;;;;;;;6.04;89.24;102664.81;5072598;28;20096;-68
2023/04/05 12:20:55;;;;;;;;;;;;;;;6.06;88.02;102678.81;5054741;28;19920;-67
2023/04/05 12:23:27;;;;;;;;;;;;;;;6.11;88.70;102671.50;5072701;28;19912;-68
2023/04/05 12:25:53;;;;;;;;;;;;;;;6.07;88.20;102667.31;5072873;28;19919;-66
2023/04/05 12:28:19;;;;;;;;;;;;;;;5.95;89.24;102664.50;5072669;28;19923;-66
2023/04/05 12:30:51;;;;;;;;;;;;;;;6.01;88.55;102666.78;5072350;28;19916;-67
2023/04/05 12:33:31;;;;;;;;;;;;;;;5.87;88.44;102663.09;5073021;28;19920;-69
2023/04/05 12:35:56;;;;;;;;;;;;;;;5.79;88.85;102664.47;5072371;28;19912;-66
2023/04/05 12:38:28;;;;;;;;;;;;;;;5.69;89.46;102666.75;5054451;28;19913;-67
2023/04/05 12:40:58;;;;;;;;;;;;;;;5.54;90.05;102672.91;5071924;28;19919;-69